createdAt,value
2022-10-26T00:01:04.251Z,6.43
2022-10-26T00:03:31.023Z,6.57
2022-10-26T00:06:04.109Z,6.47
2022-10-26T00:08:30.852Z,6.63
2022-10-26T00:10:57.881Z,5.90
2022-10-26T00:13:24.555Z,6.22
2022-10-26T00:15:51.283Z,6.10
2022-10-26T00:18:18.058Z,5.93
2022-10-26T00:20:44.736Z,5.88
2022-10-26T00:23:11.426Z,6.18
2022-10-26T00:25:38.441Z,5.85
2022-10-26T00:28:05.159Z,5.85
2022-10-26T00:30:32.026Z,5.55
2022-10-26T00:32:58.723Z,6.05
2022-10-26T00:35:44.455Z,5.63
2022-10-26T00:38:11.545Z,5.88
2022-10-26T00:40:38.240Z,6.15
2022-10-26T00:43:13.610Z,5.93
2022-10-26T00:45:40.471Z,6.63
2022-10-26T00:48:11.309Z,5.68
2022-10-26T00:53:11.190Z,5.85
2022-10-26T00:55:41.854Z,5.78
2022-10-26T00:58:10.647Z,5.97
2022-10-26T01:00:39.204Z,5.97
2022-10-26T01:03:08.482Z,6.20
2022-10-26T01:05:39.729Z,5.50
2022-10-26T01:08:08.415Z,5.35
2022-10-26T01:10:37.955Z,6.18
2022-10-26T01:13:05.380Z,5.63
2022-10-26T01:15:46.924Z,5.97
2022-10-26T01:18:28.469Z,7.13
2022-10-26T01:21:19.392Z,5.95
2022-10-26T01:23:58.099Z,6.32
2022-10-26T01:26:27.844Z,5.72
2022-10-26T01:29:15.712Z,5.40
2022-10-26T01:31:56.028Z,5.32
2022-10-26T01:34:32.362Z,5.15
2022-10-26T01:37:05.144Z,5.65
2022-10-26T01:39:43.794Z,5.63
2022-10-26T01:42:13.717Z,5.95
2022-10-26T01:44:48.334Z,5.53
2022-10-26T01:47:17.422Z,5.63
2022-10-26T01:49:49.616Z,5.60
2022-10-26T01:52:19.032Z,5.60
2022-10-26T01:54:45.745Z,5.85
2022-10-26T01:57:17.782Z,6.05
2022-10-26T02:00:02.650Z,5.28
2022-10-26T02:02:51.451Z,5.80
2022-10-26T02:05:36.775Z,5.47
2022-10-26T02:08:18.373Z,5.28
2022-10-26T02:10:48.125Z,5.07
2022-10-26T02:13:34.000Z,5.00
2022-10-26T02:16:23.737Z,5.32
2022-10-26T02:18:52.564Z,5.10
2022-10-26T02:21:28.104Z,4.97
2022-10-26T02:23:58.269Z,5.57
2022-10-26T02:26:28.568Z,5.20
2022-10-26T02:28:59.995Z,5.47
2022-10-26T02:31:27.577Z,5.20
2022-10-26T02:33:57.906Z,4.97
2022-10-26T02:36:29.080Z,4.88
2022-10-26T02:38:57.165Z,4.90
2022-10-26T02:41:27.670Z,5.15
2022-10-26T02:44:02.405Z,5.32
2022-10-26T02:46:29.381Z,5.35
2022-10-26T02:48:56.793Z,4.63
2022-10-26T02:51:23.429Z,4.70
2022-10-26T02:53:53.130Z,4.93
2022-10-26T02:56:35.910Z,4.70
2022-10-26T02:59:05.973Z,4.68
2022-10-26T03:01:34.520Z,4.63
2022-10-26T03:04:01.556Z,5.22
2022-10-26T03:06:28.364Z,4.72
2022-10-26T03:08:55.129Z,4.93
2022-10-26T03:11:21.842Z,4.70
2022-10-26T03:13:48.545Z,5.18
2022-10-26T03:16:15.185Z,4.80
2022-10-26T03:18:41.912Z,4.63
2022-10-26T03:21:08.811Z,4.78
2022-10-26T03:23:35.561Z,5.65
2022-10-26T03:26:02.235Z,5.07
2022-10-26T03:28:28.968Z,5.30
2022-10-26T03:30:55.639Z,4.55
2022-10-26T03:33:25.596Z,4.88
2022-10-26T03:35:56.702Z,4.85
2022-10-26T03:38:23.733Z,4.50
2022-10-26T03:40:50.432Z,4.82
2022-10-26T03:43:17.303Z,4.80
2022-10-26T03:45:43.993Z,4.47
2022-10-26T03:48:10.770Z,4.50
2022-10-26T03:50:37.500Z,5.00
2022-10-26T03:53:04.550Z,5.32
2022-10-26T03:55:31.251Z,4.30
2022-10-26T03:57:57.966Z,4.90
2022-10-26T04:00:24.978Z,4.47
2022-10-26T04:02:57.140Z,4.40
2022-10-26T04:05:24.853Z,4.40
2022-10-26T04:07:59.186Z,4.60
2022-10-26T04:10:27.198Z,4.60
2022-10-26T04:12:54.682Z,4.00
2022-10-26T04:15:22.389Z,4.82
2022-10-26T04:17:54.943Z,5.45
2022-10-26T04:20:21.632Z,4.65
2022-10-26T04:22:48.280Z,4.47
2022-10-26T04:25:14.998Z,4.60
2022-10-26T04:27:41.685Z,4.70
2022-10-26T04:30:09.979Z,4.15
2022-10-26T04:32:36.751Z,4.30
2022-10-26T04:35:03.538Z,4.13
2022-10-26T04:37:30.351Z,4.30
2022-10-26T04:39:57.103Z,3.80
2022-10-26T04:42:23.858Z,4.47
2022-10-26T04:44:50.545Z,4.25
2022-10-26T04:47:17.284Z,4.40
2022-10-26T04:49:43.973Z,4.00
2022-10-26T04:52:10.631Z,4.80
2022-10-26T04:54:37.282Z,4.88
2022-10-26T04:57:04.003Z,4.65
2022-10-26T04:59:30.708Z,4.50
2022-10-26T05:01:59.779Z,4.55
2022-10-26T05:04:26.574Z,4.13
2022-10-26T05:06:53.948Z,3.90
2022-10-26T05:09:20.674Z,4.60
2022-10-26T05:11:47.384Z,4.40
2022-10-26T05:14:14.080Z,4.78
2022-10-26T05:16:40.912Z,4.32
2022-10-26T05:19:07.580Z,4.30
2022-10-26T05:21:34.300Z,5.25
2022-10-26T05:24:01.118Z,5.53
2022-10-26T05:26:28.215Z,4.30
2022-10-26T05:28:54.959Z,4.15
2022-10-26T05:31:21.924Z,4.05
2022-10-26T05:33:50.412Z,3.97
2022-10-26T05:36:20.754Z,4.20
2022-10-26T05:38:47.639Z,4.20
2022-10-26T05:41:14.347Z,5.30
2022-10-26T05:43:41.056Z,4.30
2022-10-26T05:46:07.775Z,4.20
2022-10-26T05:48:34.493Z,4.65
2022-10-26T05:51:01.698Z,4.25
2022-10-26T05:53:28.720Z,4.30
2022-10-26T05:55:56.649Z,3.97
2022-10-26T05:58:24.103Z,4.22
2022-10-26T06:00:56.534Z,4.90
2022-10-26T06:03:44.326Z,4.35
2022-10-26T06:06:12.965Z,4.18
2022-10-26T06:08:39.943Z,4.53
2022-10-26T06:11:07.839Z,4.00
2022-10-26T06:13:34.973Z,4.20
2022-10-26T06:16:18.496Z,4.78
2022-10-26T06:18:51.125Z,4.72
2022-10-26T06:21:25.136Z,4.20
2022-10-26T06:24:12.944Z,4.32
2022-10-26T06:27:03.240Z,4.45
2022-10-26T06:30:01.968Z,4.40
2022-10-26T06:32:29.259Z,4.20
2022-10-26T06:35:21.754Z,4.45
2022-10-26T06:37:49.539Z,5.15
2022-10-26T06:40:17.644Z,4.60
2022-10-26T06:42:44.796Z,4.63
2022-10-26T06:47:53.617Z,4.60
2022-10-26T06:50:39.253Z,4.68
2022-10-26T06:53:30.961Z,4.68
2022-10-26T06:56:01.534Z,5.13
2022-10-26T06:58:32.972Z,4.97
2022-10-26T07:01:00.070Z,4.90
2022-10-26T07:03:26.794Z,4.95
2022-10-26T07:05:53.632Z,4.70
2022-10-26T07:08:20.313Z,4.50
2022-10-26T07:10:47.507Z,4.65
2022-10-26T07:13:14.552Z,4.60
2022-10-26T07:15:42.880Z,4.80
2022-10-26T07:18:10.039Z,4.40
2022-10-26T07:20:39.284Z,4.78
2022-10-26T07:23:07.786Z,4.40
2022-10-26T07:25:35.543Z,4.60
2022-10-26T07:28:02.278Z,4.78
2022-10-26T07:30:30.135Z,4.47
2022-10-26T07:33:05.112Z,4.50
2022-10-26T07:35:33.763Z,4.38
2022-10-26T07:38:01.261Z,4.80
2022-10-26T07:40:28.516Z,4.70
2022-10-26T07:43:00.042Z,4.95
2022-10-26T07:45:28.541Z,5.47
2022-10-26T07:47:56.088Z,4.70
2022-10-26T07:50:23.525Z,4.70
2022-10-26T07:52:51.031Z,4.75
2022-10-26T07:55:18.136Z,5.45
2022-10-26T07:57:44.853Z,4.78
2022-10-26T08:00:12.709Z,4.60
2022-10-26T08:02:39.470Z,4.50
2022-10-26T08:05:06.524Z,4.75
2022-10-26T08:07:33.196Z,4.90
2022-10-26T08:10:00.787Z,4.43
2022-10-26T08:12:27.486Z,4.90
2022-10-26T08:14:54.244Z,5.10
2022-10-26T08:17:21.555Z,4.40
2022-10-26T08:19:49.528Z,5.13
2022-10-26T08:22:16.472Z,4.47
2022-10-26T08:24:46.598Z,4.70
2022-10-26T08:27:14.928Z,4.40
2022-10-26T08:29:42.376Z,5.18
2022-10-26T08:32:09.050Z,4.72
2022-10-26T08:34:35.853Z,4.70
2022-10-26T08:37:02.650Z,4.78
2022-10-26T08:39:30.595Z,4.90
2022-10-26T08:42:22.170Z,4.95
2022-10-26T08:44:58.217Z,4.60
2022-10-26T08:47:34.284Z,4.50
2022-10-26T08:50:06.394Z,4.57
2022-10-26T08:52:47.341Z,4.80
2022-10-26T08:55:17.974Z,4.88
2022-10-26T08:57:48.345Z,4.90
2022-10-26T09:00:21.453Z,5.07
2022-10-26T09:02:52.987Z,4.70
2022-10-26T09:05:37.159Z,5.22
2022-10-26T09:08:12.053Z,4.90
2022-10-26T09:10:59.712Z,4.80
2022-10-26T09:13:43.635Z,4.88
2022-10-26T09:16:19.591Z,5.03
2022-10-26T09:19:19.601Z,5.10
2022-10-26T09:22:19.618Z,4.67
2022-10-26T09:25:05.467Z,4.73
2022-10-26T09:27:43.738Z,5.20
2022-10-26T09:30:18.930Z,5.20
2022-10-26T09:32:49.323Z,5.07
2022-10-26T09:35:31.337Z,5.50
2022-10-26T09:38:06.336Z,4.95
2022-10-26T09:40:48.296Z,4.80
2022-10-26T09:43:20.151Z,5.30
2022-10-26T09:45:51.520Z,5.32
2022-10-26T09:48:38.876Z,5.13
2022-10-26T09:51:06.855Z,4.63
2022-10-26T09:53:33.984Z,5.03
2022-10-26T09:56:10.494Z,5.30
2022-10-26T09:58:50.136Z,5.32
2022-10-26T10:01:30.160Z,5.05
2022-10-26T10:04:20.099Z,5.18
2022-10-26T10:07:03.315Z,5.88
2022-10-26T10:09:29.999Z,5.40
2022-10-26T10:11:59.439Z,6.25
2022-10-26T10:14:39.829Z,5.70
2022-10-26T10:17:19.472Z,5.38
2022-10-26T10:19:46.408Z,5.72
2022-10-26T10:22:23.754Z,5.50
2022-10-26T10:24:56.168Z,5.38
2022-10-26T10:27:23.953Z,5.93
2022-10-26T10:29:53.122Z,5.70
2022-10-26T10:32:34.072Z,5.80
2022-10-26T10:35:23.665Z,5.90
2022-10-26T10:37:51.293Z,5.45
2022-10-26T10:40:21.609Z,5.10
2022-10-26T10:42:50.436Z,4.30
2022-10-26T10:45:26.208Z,4.90
2022-10-26T10:48:12.339Z,4.90
2022-10-26T10:50:59.638Z,5.63
2022-10-26T10:53:45.183Z,5.32
2022-10-26T10:56:47.273Z,5.47
2022-10-26T10:59:26.854Z,5.90
2022-10-26T11:02:12.328Z,6.15
2022-10-26T11:04:41.850Z,6.10
2022-10-26T11:07:11.213Z,5.53
2022-10-26T11:09:44.438Z,6.00
2022-10-26T11:12:22.288Z,5.75
2022-10-26T11:15:03.323Z,6.78
2022-10-26T11:17:41.854Z,6.53
2022-10-26T11:20:29.618Z,5.70
2022-10-26T11:23:00.184Z,6.15
2022-10-26T11:28:19.811Z,6.03
2022-10-26T11:30:54.765Z,5.77
2022-10-26T11:33:34.296Z,5.80
2022-10-26T11:36:12.157Z,5.10
2022-10-26T11:39:16.317Z,6.78
2022-10-26T11:41:53.261Z,6.13
2022-10-26T11:44:29.665Z,5.65
2022-10-26T11:47:02.468Z,6.90
2022-10-26T11:50:00.752Z,6.40
2022-10-26T11:52:39.715Z,5.78
2022-10-26T11:55:10.293Z,5.55
2022-10-26T12:00:20.616Z,5.90
2022-10-26T12:03:01.925Z,7.13
2022-10-26T12:05:40.767Z,6.22
2022-10-26T12:08:32.162Z,6.00
2022-10-26T12:11:09.781Z,5.65
2022-10-26T12:13:50.664Z,5.72
2022-10-26T12:16:28.155Z,6.28
2022-10-26T12:19:01.152Z,5.68
2022-10-26T12:21:30.134Z,5.60
2022-10-26T12:24:23.724Z,6.75
2022-10-26T12:27:00.288Z,5.55
2022-10-26T12:29:30.158Z,6.15
2022-10-26T12:31:57.466Z,5.93
2022-10-26T12:34:30.252Z,5.07
2022-10-26T12:36:56.944Z,4.75
2022-10-26T12:39:31.464Z,4.90
2022-10-26T12:42:00.144Z,5.00
2022-10-26T12:44:38.100Z,5.22
2022-10-26T12:47:05.504Z,5.38
2022-10-26T12:50:06.582Z,5.03
2022-10-26T12:52:48.548Z,4.95
2022-10-26T12:55:42.718Z,4.93
2022-10-26T12:58:37.099Z,5.15
2022-10-26T13:01:04.192Z,5.35
2022-10-26T13:03:59.720Z,5.60
2022-10-26T13:06:29.460Z,5.18
2022-10-26T13:08:58.993Z,4.65
2022-10-26T13:11:38.341Z,4.93
2022-10-26T13:14:16.229Z,4.15
2022-10-26T13:16:45.893Z,3.90
2022-10-26T13:19:43.454Z,4.10
2022-10-26T13:22:20.245Z,4.10
2022-10-26T13:24:54.622Z,4.35
2022-10-26T13:27:40.537Z,4.70
2022-10-26T13:30:17.373Z,5.03
2022-10-26T13:32:55.562Z,4.57
2022-10-26T13:35:24.532Z,4.60
2022-10-26T13:37:54.361Z,4.80
2022-10-26T13:40:24.621Z,4.32
2022-10-26T13:43:02.404Z,4.60
2022-10-26T13:45:32.199Z,4.20
2022-10-26T13:48:16.780Z,5.40
2022-10-26T13:50:53.188Z,4.57
2022-10-26T13:53:19.850Z,4.80
2022-10-26T13:56:03.889Z,4.90
2022-10-26T13:58:40.705Z,4.63
2022-10-26T14:01:11.481Z,4.40
2022-10-26T14:03:39.362Z,4.85
2022-10-26T14:06:28.662Z,5.32
2022-10-26T14:09:00.066Z,5.00
2022-10-26T14:11:44.179Z,5.03
2022-10-26T14:14:24.077Z,5.25
2022-10-26T14:16:52.389Z,5.30
2022-10-26T14:19:28.040Z,5.25
2022-10-26T14:21:55.897Z,5.53
2022-10-26T14:24:47.215Z,5.00
2022-10-26T14:27:20.048Z,5.10
2022-10-26T14:29:58.514Z,4.80
2022-10-26T14:32:34.007Z,5.00
2022-10-26T14:35:00.859Z,5.20
2022-10-26T14:37:35.426Z,5.53
2022-10-26T14:40:03.220Z,5.22
2022-10-26T14:42:33.716Z,5.50
2022-10-26T14:45:01.789Z,5.30
2022-10-26T14:47:33.777Z,5.18
2022-10-26T14:50:01.749Z,5.00
2022-10-26T14:52:36.503Z,4.65
2022-10-26T14:55:15.255Z,5.30
2022-10-26T14:57:44.628Z,5.18
2022-10-26T15:00:19.145Z,4.90
2022-10-26T15:05:34.802Z,4.80
2022-10-26T15:08:03.389Z,4.90
2022-10-26T15:10:36.378Z,4.97
2022-10-26T15:13:25.000Z,5.28
2022-10-26T15:15:56.062Z,5.00
2022-10-26T15:18:30.225Z,4.90
2022-10-26T15:20:57.700Z,5.18
2022-10-26T15:23:27.790Z,5.53
2022-10-26T15:26:02.779Z,5.00
2022-10-26T15:28:36.525Z,5.35
2022-10-26T15:31:12.654Z,5.15
2022-10-26T15:33:40.856Z,5.10
2022-10-26T15:36:12.458Z,5.10
2022-10-26T15:38:39.353Z,6.05
2022-10-26T15:41:30.119Z,5.32
2022-10-26T15:46:28.949Z,6.30
2022-10-26T15:48:58.172Z,4.95
2022-10-26T15:51:25.210Z,7.00
2022-10-26T15:53:52.478Z,5.32
2022-10-26T15:56:23.376Z,5.40
2022-10-26T15:58:50.538Z,5.45
2022-10-26T16:01:21.290Z,5.75
2022-10-26T16:03:48.166Z,5.25
2022-10-26T16:06:25.050Z,5.00
2022-10-26T16:08:53.727Z,5.72
2022-10-26T16:11:20.391Z,5.45
2022-10-26T16:13:47.236Z,5.53
2022-10-26T16:16:16.084Z,5.47
2022-10-26T16:18:43.758Z,5.07
2022-10-26T16:21:14.850Z,4.82
2022-10-26T16:23:42.245Z,5.00
2022-10-26T16:26:09.402Z,5.70
2022-10-26T16:28:36.773Z,5.80
2022-10-26T16:31:10.478Z,5.38
2022-10-26T16:33:37.412Z,5.07
2022-10-26T16:36:05.858Z,5.50
2022-10-26T16:38:33.392Z,5.95
2022-10-26T16:41:13.427Z,5.80
2022-10-26T16:43:42.249Z,5.75
2022-10-26T16:46:17.600Z,5.35
2022-10-26T16:48:46.783Z,5.22
2022-10-26T16:51:18.245Z,6.93
2022-10-26T16:53:48.098Z,6.40
2022-10-26T16:56:17.451Z,6.10
2022-10-26T16:58:44.144Z,6.15
2022-10-26T17:01:13.020Z,5.60
2022-10-26T17:03:40.130Z,6.35
2022-10-26T17:06:07.747Z,5.43
2022-10-26T17:08:36.024Z,6.20
2022-10-26T17:11:05.906Z,6.00
2022-10-26T17:13:32.824Z,5.88
2022-10-26T17:16:07.874Z,5.63
2022-10-26T17:18:34.616Z,6.72
2022-10-26T17:21:01.633Z,5.88
2022-10-26T17:23:30.954Z,5.35
2022-10-26T17:26:02.052Z,5.75
2022-10-26T17:28:28.914Z,5.35
2022-10-26T17:31:14.935Z,5.50
2022-10-26T17:33:43.387Z,5.82
2022-10-26T17:36:12.013Z,5.40
2022-10-26T17:38:40.695Z,5.70
2022-10-26T17:41:10.978Z,5.63
2022-10-26T17:43:39.200Z,5.43
2022-10-26T17:46:09.612Z,5.20
2022-10-26T17:48:36.527Z,5.38
2022-10-26T17:51:06.891Z,5.72
2022-10-26T17:53:33.802Z,5.63
2022-10-26T17:56:05.161Z,5.60
2022-10-26T17:58:33.579Z,5.70
2022-10-26T18:01:02.244Z,5.60
2022-10-26T18:03:28.984Z,5.95
2022-10-26T18:05:55.856Z,5.78
2022-10-26T18:08:22.849Z,6.30
2022-10-26T18:10:58.627Z,6.22
2022-10-26T18:13:29.047Z,5.40
2022-10-26T18:15:55.789Z,5.85
2022-10-26T18:18:22.517Z,5.90
2022-10-26T18:20:49.244Z,5.45
2022-10-26T18:23:15.922Z,5.60
2022-10-26T18:25:42.663Z,5.30
2022-10-26T18:28:09.418Z,6.60
2022-10-26T18:30:36.161Z,6.10
2022-10-26T18:33:02.929Z,5.35
2022-10-26T18:35:31.578Z,6.40
2022-10-26T18:37:58.349Z,5.63
2022-10-26T18:40:25.033Z,6.10
2022-10-26T18:42:51.719Z,5.80
2022-10-26T18:45:18.410Z,5.90
2022-10-26T18:47:45.134Z,6.28
2022-10-26T18:50:11.891Z,5.65
2022-10-26T18:52:38.633Z,6.25
2022-10-26T18:55:06.674Z,6.28
2022-10-26T18:57:33.466Z,5.90
2022-10-26T19:00:00.247Z,5.90
2022-10-26T19:02:26.907Z,6.25
2022-10-26T19:04:54.120Z,6.10
2022-10-26T19:07:21.039Z,5.68
2022-10-26T19:09:49.143Z,5.78
2022-10-26T19:12:15.898Z,5.68
2022-10-26T19:14:47.201Z,5.47
2022-10-26T19:17:14.011Z,5.28
2022-10-26T19:19:40.794Z,6.25
2022-10-26T19:22:07.785Z,5.63
2022-10-26T19:24:34.534Z,5.47
2022-10-26T19:27:01.308Z,5.57
2022-10-26T19:29:28.129Z,5.35
2022-10-26T19:31:55.090Z,5.60
2022-10-26T19:34:21.940Z,5.22
2022-10-26T19:36:48.867Z,5.97
2022-10-26T19:39:16.974Z,6.03
2022-10-26T19:41:44.953Z,6.07
2022-10-26T19:44:12.491Z,5.72
2022-10-26T19:46:39.845Z,5.68
2022-10-26T19:49:07.222Z,5.50
2022-10-26T19:51:34.215Z,6.13
2022-10-26T19:54:04.046Z,6.90
2022-10-26T19:56:32.577Z,6.90
2022-10-26T19:58:59.813Z,6.85
2022-10-26T20:01:26.897Z,6.55
2022-10-26T20:03:53.880Z,7.25
2022-10-26T20:06:20.882Z,6.65
2022-10-26T20:08:49.096Z,6.55
2022-10-26T20:11:17.371Z,6.30
2022-10-26T20:13:45.633Z,6.63
2022-10-26T20:16:13.405Z,7.47
2022-10-26T20:18:44.083Z,7.20
2022-10-26T20:21:16.160Z,6.50
2022-10-26T20:23:44.240Z,6.65
2022-10-26T20:26:18.126Z,6.00
2022-10-26T20:28:47.545Z,7.53
2022-10-26T20:31:14.723Z,5.85
2022-10-26T20:33:41.599Z,6.93
2022-10-26T20:36:08.588Z,6.30
2022-10-26T20:38:35.925Z,6.95
2022-10-26T20:41:06.222Z,6.55
2022-10-26T20:43:39.240Z,6.68
2022-10-26T20:46:10.531Z,6.53
2022-10-26T20:48:38.722Z,6.90
2022-10-26T20:51:19.707Z,6.10
2022-10-26T20:54:05.139Z,6.05
2022-10-26T20:56:33.097Z,6.90
2022-10-26T20:59:01.374Z,6.25
2022-10-26T21:01:30.650Z,6.68
2022-10-26T21:03:59.120Z,6.57
2022-10-26T21:06:26.765Z,6.90
2022-10-26T21:08:54.958Z,6.70
2022-10-26T21:11:23.323Z,6.95
2022-10-26T21:13:52.006Z,6.90
2022-10-26T21:16:18.896Z,6.57
2022-10-26T21:18:45.724Z,5.95
2022-10-26T21:21:12.793Z,6.20
2022-10-26T21:23:41.222Z,6.25
2022-10-26T21:26:08.769Z,6.05
2022-10-26T21:28:37.690Z,7.82
2022-10-26T21:31:06.657Z,5.78
2022-10-26T21:33:33.956Z,6.18
2022-10-26T21:36:01.899Z,6.18
2022-10-26T21:38:29.568Z,5.70
2022-10-26T21:41:09.635Z,6.20
2022-10-26T21:43:37.926Z,6.15
2022-10-26T21:46:05.531Z,7.57
2022-10-26T21:48:33.452Z,6.10
2022-10-26T21:51:05.278Z,6.03
2022-10-26T21:53:32.279Z,5.68
2022-10-26T21:56:00.889Z,6.07
2022-10-26T21:58:28.202Z,6.13
2022-10-26T22:00:54.910Z,5.68
2022-10-26T22:03:21.643Z,6.40
2022-10-26T22:05:54.249Z,6.57
2022-10-26T22:08:21.810Z,6.20
2022-10-26T22:10:48.534Z,5.90
2022-10-26T22:13:15.354Z,5.70
2022-10-26T22:15:42.314Z,5.75
2022-10-26T22:18:09.086Z,5.95
2022-10-26T22:20:35.793Z,6.10
2022-10-26T22:25:32.539Z,6.18
2022-10-26T22:27:59.486Z,5.30
2022-10-26T22:30:26.211Z,5.80
2022-10-26T22:32:53.090Z,5.25
2022-10-26T22:35:35.316Z,6.38
2022-10-26T22:38:02.022Z,5.80
2022-10-26T22:40:28.711Z,5.57
2022-10-26T22:42:55.400Z,5.10
2022-10-26T22:45:22.051Z,5.43
2022-10-26T22:47:48.759Z,5.28
2022-10-26T22:50:15.537Z,5.57
2022-10-26T22:52:42.181Z,5.50
2022-10-26T22:55:09.010Z,5.45
2022-10-26T22:57:35.733Z,5.40
2022-10-26T23:00:02.412Z,5.43
2022-10-26T23:02:29.178Z,5.30
2022-10-26T23:04:55.864Z,5.50
2022-10-26T23:07:25.995Z,5.85
2022-10-26T23:09:52.782Z,5.00
2022-10-26T23:12:19.488Z,5.65
2022-10-26T23:14:46.159Z,5.32
2022-10-26T23:17:12.850Z,6.28
2022-10-26T23:19:39.550Z,5.40
2022-10-26T23:22:06.237Z,5.80
2022-10-26T23:24:32.887Z,5.25
2022-10-26T23:26:59.553Z,5.20
2022-10-26T23:29:26.193Z,5.65
2022-10-26T23:31:52.970Z,5.90
2022-10-26T23:34:19.688Z,5.30
2022-10-26T23:36:48.080Z,5.40
2022-10-26T23:39:14.724Z,5.30
2022-10-26T23:41:42.037Z,5.50
2022-10-26T23:44:08.782Z,6.10
2022-10-26T23:46:35.457Z,5.43
2022-10-26T23:49:02.303Z,5.43
2022-10-26T23:51:29.021Z,5.70
2022-10-26T23:53:55.686Z,6.15
2022-10-26T23:56:22.356Z,5.32
2022-10-26T23:58:52.002Z,5.50
